createdAt,value
2018-12-02T14:35:10.381Z,245.94
2018-12-02T14:36:10.349Z,283.22
2018-12-02T14:37:10.335Z,290.54
2018-12-02T14:38:10.304Z,293.47
2018-12-02T14:39:10.273Z,296.12
2018-12-02T14:40:10.920Z,296.64
2018-12-02T14:41:10.218Z,298.32
2018-12-02T14:42:10.122Z,299.40
2018-12-02T14:43:10.095Z,300.50
2018-12-02T14:44:10.039Z,301.84
2018-12-02T14:45:09.971Z,302.85
2018-12-02T14:46:09.940Z,302.19
2018-12-02T14:47:09.838Z,302.03
2018-12-02T14:48:09.849Z,304.00
2018-12-02T14:49:09.727Z,305.15
2018-12-02T14:50:09.665Z,303.93
2018-12-02T14:51:09.635Z,303.64
2018-12-02T14:52:09.501Z,304.24
2018-12-02T14:53:09.421Z,303.61
2018-12-02T14:54:09.356Z,303.74
2018-12-02T14:55:09.268Z,303.23
2018-12-02T14:56:09.196Z,302.94
2018-12-02T14:57:09.153Z,302.52
2018-12-02T14:58:09.045Z,302.95
2018-12-02T14:59:08.961Z,304.72
2018-12-02T15:00:08.866Z,305.38
2018-12-02T15:01:10.049Z,282.61
2018-12-02T15:04:33.222Z,269.77
2018-12-02T15:05:33.195Z,296.20
2018-12-02T15:06:33.188Z,298.05
2018-12-02T15:07:33.179Z,298.54
2018-12-02T15:08:33.304Z,298.98
2018-12-02T15:09:33.392Z,299.47
2018-12-02T15:10:33.152Z,299.01
2018-12-02T15:11:33.126Z,299.75
2018-12-02T15:12:33.282Z,301.27
2018-12-02T15:13:33.110Z,301.09
2018-12-02T15:14:33.245Z,302.50
2018-12-02T15:15:33.123Z,302.75
2018-12-02T15:16:33.109Z,304.19
2018-12-02T15:17:33.066Z,303.94
2018-12-02T15:18:33.045Z,305.27
2018-12-02T15:19:33.072Z,308.17
2018-12-02T15:20:33.033Z,308.25
2018-12-02T15:21:33.032Z,306.43
2018-12-02T15:22:33.046Z,310.09
2018-12-02T15:23:32.997Z,309.83
2018-12-02T15:24:32.974Z,311.55
2018-12-02T15:25:32.961Z,312.16
2018-12-02T15:26:32.955Z,312.51
2018-12-02T15:27:32.956Z,311.17
2018-12-02T15:28:32.976Z,316.00
2018-12-02T15:29:32.997Z,312.01
2018-12-02T15:30:32.957Z,315.64
2018-12-02T15:31:32.938Z,316.45
2018-12-02T15:32:32.903Z,315.77
2018-12-02T15:33:32.903Z,315.12
2018-12-02T15:34:32.928Z,317.15
2018-12-02T15:35:32.854Z,313.82
2018-12-02T15:36:32.880Z,314.90
2018-12-02T15:37:32.836Z,318.53
2018-12-02T15:38:32.812Z,317.22
2018-12-02T15:39:32.821Z,320.25
2018-12-02T15:40:32.802Z,317.12
2018-12-02T15:41:32.826Z,317.73
2018-12-02T15:42:32.797Z,317.04
2018-12-02T15:43:32.775Z,316.56
2018-12-02T15:44:32.767Z,317.99
2018-12-02T15:45:32.756Z,319.95
2018-12-02T15:46:32.770Z,317.95
2018-12-02T15:47:32.732Z,318.95
2018-12-02T15:48:32.728Z,316.26
2018-12-02T15:49:32.712Z,316.43
2018-12-02T15:50:32.701Z,315.38
2018-12-02T15:51:32.710Z,319.05
2018-12-02T15:52:32.724Z,319.10
2018-12-02T15:53:32.668Z,317.95
2018-12-02T15:54:32.649Z,316.71
2018-12-02T15:55:32.642Z,316.88
2018-12-02T15:56:32.638Z,319.12
2018-12-02T15:57:32.627Z,320.04
2018-12-02T15:58:32.620Z,317.01
2018-12-02T15:59:32.601Z,317.60
2018-12-02T16:00:32.606Z,318.45
2018-12-02T16:01:32.607Z,318.02
2018-12-02T16:02:32.583Z,317.43
2018-12-02T16:03:32.582Z,318.92
2018-12-02T16:04:32.539Z,318.14
2018-12-02T16:05:32.542Z,318.39
2018-12-02T16:06:32.529Z,317.03
2018-12-02T16:07:32.514Z,318.10
2018-12-02T16:08:32.511Z,318.93
2018-12-02T16:09:32.518Z,317.88
2018-12-02T16:10:32.494Z,318.59
2018-12-02T16:11:32.479Z,318.13
2018-12-02T16:12:32.470Z,317.13
2018-12-02T16:13:32.488Z,317.85
2018-12-02T16:14:32.443Z,317.49
2018-12-02T16:15:32.463Z,317.90
2018-12-02T16:16:32.436Z,317.90
2018-12-02T16:17:32.403Z,318.54
2018-12-02T16:18:32.407Z,317.69
2018-12-02T16:19:32.388Z,318.02
2018-12-02T16:20:32.373Z,318.03
2018-12-02T16:21:32.402Z,317.80
2018-12-02T16:22:32.345Z,317.02
2018-12-02T16:23:32.346Z,318.98
2018-12-02T16:24:32.340Z,317.05
2018-12-02T16:25:32.337Z,316.69
2018-12-02T16:26:32.356Z,317.68
2018-12-02T16:27:32.290Z,315.33
2018-12-02T16:28:32.380Z,317.14
2018-12-02T16:29:32.265Z,317.51
2018-12-02T16:30:32.281Z,317.97
2018-12-02T16:31:32.269Z,317.15
2018-12-02T16:32:32.249Z,316.83
2018-12-02T16:33:32.248Z,317.72
2018-12-02T16:34:32.249Z,317.21
2018-12-02T16:35:32.211Z,318.22
2018-12-02T16:36:32.225Z,317.34
2018-12-02T16:37:32.202Z,316.36
2018-12-02T16:38:32.182Z,317.68
2018-12-02T16:39:32.192Z,316.96
2018-12-02T16:40:32.172Z,315.57
2018-12-02T16:41:32.255Z,318.53
2018-12-02T16:42:32.148Z,318.37
2018-12-02T16:43:32.182Z,317.61
2018-12-02T16:44:32.127Z,318.85
2018-12-02T16:45:32.097Z,318.61
2018-12-02T16:46:32.113Z,314.98
2018-12-02T16:47:32.100Z,317.84
2018-12-02T16:48:32.125Z,315.46
2018-12-02T16:49:32.052Z,317.12
2018-12-02T16:50:32.053Z,316.26
2018-12-02T16:51:32.037Z,315.85
2018-12-02T16:52:32.041Z,316.61
2018-12-02T16:53:32.024Z,318.66
2018-12-02T16:54:32.027Z,316.50
2018-12-02T16:55:32.017Z,316.29
2018-12-02T16:56:31.995Z,316.17
2018-12-02T16:57:32.001Z,315.97
2018-12-02T16:58:31.978Z,317.14
2018-12-02T16:59:31.985Z,315.62
2018-12-02T17:00:31.947Z,315.80
2018-12-02T17:01:31.932Z,315.90
2018-12-02T17:02:31.946Z,315.58
2018-12-02T17:03:31.910Z,315.70
2018-12-02T17:04:31.911Z,318.61
2018-12-02T17:05:31.886Z,314.17
2018-12-02T17:06:31.876Z,316.97
2018-12-02T17:07:31.858Z,317.42
2018-12-02T17:08:31.848Z,316.38
2018-12-02T17:09:31.856Z,316.11
2018-12-02T17:10:31.824Z,315.80
2018-12-02T17:11:31.815Z,316.29
2018-12-02T17:12:31.794Z,317.77
2018-12-02T17:13:31.778Z,316.87
2018-12-02T17:14:31.786Z,314.37
2018-12-02T17:15:31.765Z,314.64
2018-12-02T17:16:31.765Z,319.07
2018-12-02T17:17:31.758Z,314.95
2018-12-02T17:18:31.747Z,316.59
2018-12-02T17:19:31.751Z,317.27
2018-12-02T17:20:31.702Z,317.05
2018-12-02T17:21:31.701Z,317.93
2018-12-02T17:22:31.685Z,315.67
2018-12-02T17:23:31.679Z,317.34
2018-12-02T17:24:31.675Z,315.56
2018-12-02T17:25:31.685Z,315.12
2018-12-02T17:26:31.639Z,314.31
2018-12-02T17:27:31.646Z,316.04
2018-12-02T17:28:31.643Z,315.41
2018-12-02T17:29:31.617Z,314.85
2018-12-02T17:30:31.610Z,317.22
2018-12-02T17:31:31.620Z,316.12
2018-12-02T17:32:31.576Z,317.39
2018-12-02T17:33:31.729Z,315.88
2018-12-02T17:34:31.553Z,314.90
2018-12-02T17:35:31.559Z,317.14
2018-12-02T17:36:31.898Z,315.38
2018-12-02T17:37:31.532Z,315.43
2018-12-02T17:38:31.511Z,314.80
2018-12-02T17:39:31.514Z,317.66
2018-12-02T17:40:31.482Z,315.45
2018-12-02T17:41:31.493Z,316.39
2018-12-02T17:42:31.480Z,317.83
2018-12-02T17:43:31.449Z,315.36
2018-12-02T17:44:31.445Z,315.63
2018-12-02T17:45:31.448Z,314.31
2018-12-02T17:46:31.458Z,315.01
2018-12-02T17:47:31.499Z,314.51
2018-12-02T17:48:31.417Z,316.90
2018-12-02T17:49:31.432Z,314.98
2018-12-02T17:50:31.391Z,315.32
2018-12-02T17:51:31.368Z,315.95
2018-12-02T17:52:31.402Z,317.93
2018-12-02T17:53:31.346Z,317.60
2018-12-02T17:54:31.331Z,314.39
2018-12-02T17:55:31.330Z,315.04
2018-12-02T17:56:31.329Z,315.80
2018-12-02T17:57:31.294Z,314.46
2018-12-02T17:58:31.331Z,315.74
2018-12-02T17:59:31.282Z,315.97
2018-12-02T18:00:31.285Z,316.72
2018-12-02T18:01:31.269Z,317.41
2018-12-02T18:02:31.263Z,317.35
2018-12-02T18:03:31.235Z,315.61
2018-12-02T18:04:31.265Z,315.10
2018-12-02T18:05:31.213Z,314.34
2018-12-02T18:06:31.197Z,314.85
2018-12-02T18:07:31.203Z,315.52
2018-12-02T18:08:31.198Z,314.13
2018-12-02T18:09:31.175Z,315.25
2018-12-02T18:10:31.175Z,315.66
2018-12-02T18:11:31.149Z,316.55
2018-12-02T18:12:31.135Z,316.85
2018-12-02T18:13:31.190Z,316.36
2018-12-02T18:14:31.121Z,314.59
2018-12-02T18:15:31.104Z,315.38
2018-12-02T18:16:31.100Z,315.29
2018-12-02T18:17:31.074Z,314.41
2018-12-02T18:18:31.089Z,316.16
2018-12-02T18:19:31.089Z,314.38
2018-12-02T18:20:31.081Z,314.43
2018-12-02T18:21:31.047Z,314.81
2018-12-02T18:22:31.032Z,315.95
2018-12-02T18:23:31.056Z,315.74
2018-12-02T18:24:31.035Z,314.92
2018-12-02T18:25:31.011Z,313.95
2018-12-02T18:26:30.975Z,314.07
2018-12-02T18:27:30.975Z,315.67
2018-12-02T18:28:30.962Z,314.53
2018-12-02T18:29:30.951Z,317.96
2018-12-02T18:30:30.948Z,314.88
2018-12-02T18:31:30.935Z,314.39
2018-12-02T18:32:30.922Z,314.60
2018-12-02T18:33:30.930Z,313.95
2018-12-02T18:34:30.931Z,315.83
2018-12-02T18:35:30.885Z,314.27
2018-12-02T18:36:30.869Z,314.05
2018-12-02T18:37:30.858Z,315.18
2018-12-02T18:38:30.853Z,314.27
2018-12-02T18:39:30.837Z,316.59
2018-12-02T18:40:30.861Z,318.11
2018-12-02T18:41:30.827Z,314.01
2018-12-02T18:42:30.812Z,314.71
2018-12-02T18:43:30.789Z,316.27
2018-12-02T18:44:30.791Z,314.85
2018-12-02T18:45:30.792Z,315.50
2018-12-02T18:46:30.800Z,315.88
2018-12-02T18:47:30.763Z,315.57
2018-12-02T18:48:30.732Z,314.55
2018-12-02T18:49:30.721Z,318.36
2018-12-02T18:50:30.716Z,313.67
2018-12-02T18:51:30.743Z,316.52
2018-12-02T18:52:30.704Z,315.11
2018-12-02T18:53:30.684Z,314.45
2018-12-02T18:54:30.671Z,314.17
2018-12-02T18:55:30.666Z,315.48
2018-12-02T18:56:30.661Z,314.81
2018-12-02T18:57:30.682Z,314.31
2018-12-02T18:58:30.631Z,315.64
2018-12-02T18:59:30.629Z,314.82
2018-12-02T19:00:30.600Z,314.15
2018-12-02T19:01:30.601Z,314.57
2018-12-02T19:02:30.581Z,315.47
2018-12-02T19:03:30.600Z,314.19
2018-12-02T19:04:30.575Z,314.79
2018-12-02T19:05:30.555Z,314.87
2018-12-02T19:06:30.537Z,313.27
2018-12-02T19:07:30.534Z,314.87
2018-12-02T19:08:30.519Z,314.23
2018-12-02T19:09:30.527Z,316.58
2018-12-02T19:10:30.512Z,313.40
2018-12-02T19:11:30.475Z,314.60
2018-12-02T19:12:30.509Z,314.77
2018-12-02T19:13:30.470Z,315.25
2018-12-02T19:14:30.465Z,315.11
2018-12-02T19:15:30.459Z,314.25
2018-12-02T19:16:30.427Z,313.84
2018-12-02T19:17:30.411Z,316.00
2018-12-02T19:18:30.409Z,315.34
2018-12-02T19:19:30.425Z,314.03
2018-12-02T19:20:30.394Z,315.07
2018-12-02T19:21:30.375Z,316.54
2018-12-02T19:22:30.376Z,315.85
2018-12-02T19:23:30.351Z,315.87
2018-12-02T19:24:30.358Z,315.87
2018-12-02T19:25:30.330Z,314.45
2018-12-02T19:26:30.310Z,316.48
2018-12-02T19:27:30.314Z,314.66
2018-12-02T19:28:30.326Z,314.62
2018-12-02T19:29:30.320Z,313.80
2018-12-02T19:30:33.028Z,313.95
2018-12-02T19:31:30.263Z,315.32
2018-12-02T19:32:30.253Z,314.23
2018-12-02T19:33:30.251Z,315.35
2018-12-02T19:34:30.237Z,317.18
2018-12-02T19:35:30.228Z,315.01
2018-12-02T19:36:30.218Z,315.06
2018-12-02T19:37:30.191Z,313.35
2018-12-02T19:38:30.188Z,316.59
2018-12-02T19:39:30.189Z,316.43
2018-12-02T19:40:30.169Z,315.06
2018-12-02T19:41:30.153Z,313.71
2018-12-02T19:42:30.142Z,314.52
2018-12-02T19:43:30.127Z,313.90
2018-12-02T19:44:30.150Z,315.73
2018-12-02T19:45:30.109Z,314.56
2018-12-02T19:46:30.100Z,314.87
2018-12-02T19:47:30.111Z,313.75
2018-12-02T19:48:30.127Z,314.26
2018-12-02T19:49:30.074Z,314.53
2018-12-02T19:50:30.084Z,314.85
2018-12-02T19:51:30.134Z,315.19
2018-12-02T19:52:30.036Z,314.36
2018-12-02T19:53:30.038Z,314.59
2018-12-02T19:54:30.024Z,315.20
2018-12-02T19:55:29.998Z,314.89
2018-12-02T19:56:30.012Z,314.40
2018-12-02T19:57:29.984Z,314.71
2018-12-02T19:58:29.960Z,315.58
2018-12-02T19:59:29.956Z,316.56
2018-12-02T20:00:29.941Z,315.12
2018-12-02T20:01:29.969Z,314.51
2018-12-02T20:02:29.929Z,314.00
2018-12-02T20:03:29.911Z,314.24
2018-12-02T20:04:29.896Z,314.78
2018-12-02T20:05:29.894Z,313.98
2018-12-02T20:06:29.880Z,315.93
2018-12-02T20:07:29.907Z,313.72
2018-12-02T20:08:29.859Z,315.59
2018-12-02T20:09:29.859Z,314.12
2018-12-02T20:10:29.842Z,315.24
2018-12-02T20:11:29.823Z,314.33
2018-12-02T20:12:29.835Z,314.06
2018-12-02T20:13:29.811Z,315.61
2018-12-02T20:14:29.833Z,315.37
2018-12-02T20:15:29.780Z,315.07
2018-12-02T20:16:29.760Z,314.76
2018-12-02T20:17:29.760Z,314.27
2018-12-02T20:18:29.736Z,316.17
2018-12-02T20:19:29.740Z,315.05
2018-12-02T20:20:29.755Z,314.15
2018-12-02T20:21:29.714Z,313.35
2018-12-02T20:22:29.705Z,314.94
2018-12-02T20:23:29.698Z,316.72
2018-12-02T20:24:29.691Z,313.59
2018-12-02T20:25:29.679Z,314.86
2018-12-02T20:26:29.686Z,314.51
2018-12-02T20:27:29.661Z,315.17
2018-12-02T20:28:29.672Z,314.53
2018-12-02T20:29:29.664Z,315.05
2018-12-02T20:30:29.658Z,313.59
2018-12-02T20:31:29.640Z,313.87
2018-12-02T20:32:29.677Z,316.24
2018-12-02T20:33:29.608Z,313.62
2018-12-02T20:34:29.692Z,314.61
2018-12-02T20:35:29.680Z,313.21
2018-12-02T20:36:29.559Z,314.38
2018-12-02T20:37:29.589Z,315.02
2018-12-02T20:38:29.530Z,315.63
2018-12-02T20:39:29.550Z,316.06
2018-12-02T20:40:29.493Z,315.19
2018-12-02T20:41:29.556Z,313.87
2018-12-02T20:42:29.493Z,314.91
2018-12-02T20:43:29.548Z,315.66
2018-12-02T20:44:29.486Z,313.33
2018-12-02T20:45:29.492Z,314.74
2018-12-02T20:46:29.442Z,314.12
2018-12-02T20:47:29.454Z,313.75
2018-12-02T20:48:29.443Z,317.60
2018-12-02T20:49:29.398Z,314.53
2018-12-02T20:50:29.388Z,315.32
2018-12-02T20:51:29.413Z,314.27
2018-12-02T20:52:29.382Z,314.25
2018-12-02T20:53:29.364Z,315.10
2018-12-02T20:54:29.343Z,314.53
2018-12-02T20:55:29.347Z,314.65
2018-12-02T20:56:29.424Z,315.42
2018-12-02T20:57:29.366Z,315.69
2018-12-02T20:58:29.436Z,314.69
2018-12-02T20:59:29.312Z,315.60
2018-12-02T21:00:29.279Z,314.57
2018-12-02T21:01:29.262Z,314.52
2018-12-02T21:02:29.266Z,315.17
2018-12-02T21:03:29.255Z,314.22
2018-12-02T21:04:29.250Z,314.58
2018-12-02T21:05:29.256Z,314.06
2018-12-02T21:06:29.392Z,313.88
2018-12-02T21:07:30.326Z,316.94
2018-12-02T21:08:29.198Z,314.46
2018-12-02T21:09:29.346Z,314.76
2018-12-02T21:10:29.191Z,313.84
2018-12-02T21:11:29.170Z,313.69
2018-12-02T21:12:29.159Z,313.65
2018-12-02T21:13:29.139Z,313.98
2018-12-02T21:14:29.169Z,314.17
2018-12-02T21:15:29.119Z,314.92
2018-12-02T21:16:29.137Z,314.75
2018-12-02T21:17:29.103Z,313.03
2018-12-02T21:18:29.093Z,314.46
2018-12-02T21:19:29.067Z,313.75
2018-12-02T21:20:29.060Z,315.25
2018-12-02T21:21:29.065Z,317.67
2018-12-02T21:22:29.050Z,316.09
2018-12-02T21:23:29.032Z,314.80
2018-12-02T21:24:29.025Z,315.70
2018-12-02T21:25:29.013Z,312.90
2018-12-02T21:26:29.108Z,314.78
2018-12-02T21:27:29.079Z,313.85
2018-12-02T21:28:29.029Z,313.70
2018-12-02T21:29:29.127Z,313.79
2018-12-02T21:30:29.592Z,315.38
2018-12-02T21:31:28.961Z,313.23
2018-12-02T21:32:29.084Z,313.15
2018-12-02T21:33:29.053Z,314.97
2018-12-02T21:34:28.949Z,314.74
2018-12-02T21:35:28.986Z,313.09
2018-12-02T21:36:28.960Z,313.21
2018-12-02T21:37:28.886Z,313.21
2018-12-02T21:38:28.883Z,313.15
2018-12-02T21:39:28.977Z,313.55
2018-12-02T21:40:28.879Z,314.39
2018-12-02T21:41:28.828Z,315.10
2018-12-02T21:42:28.822Z,315.07
2018-12-02T21:43:28.816Z,315.65
2018-12-02T21:44:28.827Z,314.42
2018-12-02T21:45:28.778Z,313.55
2018-12-02T21:46:28.775Z,317.70
2018-12-02T21:47:28.780Z,313.05
2018-12-02T21:48:28.760Z,314.01
2018-12-02T21:49:28.760Z,313.25
2018-12-02T21:50:28.766Z,314.21
2018-12-02T21:51:28.719Z,312.48
2018-12-02T21:52:28.705Z,314.41
2018-12-02T21:53:28.697Z,315.63
2018-12-02T21:54:28.689Z,313.95
2018-12-02T21:55:28.681Z,315.55
2018-12-02T21:56:28.694Z,313.06
2018-12-02T21:57:28.644Z,315.64
2018-12-02T21:58:28.645Z,312.81
2018-12-02T21:59:28.635Z,312.67
2018-12-02T22:00:28.627Z,313.90
2018-12-02T22:01:28.649Z,314.28
2018-12-02T22:02:28.611Z,312.45
2018-12-02T22:03:28.583Z,314.28
2018-12-02T22:04:28.572Z,312.93
2018-12-02T22:05:28.568Z,314.98
2018-12-02T22:06:28.580Z,314.34
2018-12-02T22:07:28.571Z,314.86
2018-12-02T22:08:28.539Z,314.18
2018-12-02T22:09:28.556Z,313.35
2018-12-02T22:10:28.526Z,313.28
2018-12-02T22:11:28.494Z,313.75
2018-12-02T22:12:28.489Z,313.89
2018-12-02T22:13:28.483Z,313.36
2018-12-02T22:14:28.478Z,314.44
2018-12-02T22:15:28.483Z,312.02
2018-12-02T22:16:28.436Z,312.85
2018-12-02T22:17:28.438Z,313.05
2018-12-02T22:18:28.421Z,314.10
2018-12-02T22:19:28.428Z,316.45
2018-12-02T22:20:28.408Z,312.82
2018-12-02T22:21:28.439Z,313.29
2018-12-02T22:22:28.389Z,313.82
2018-12-02T22:23:28.369Z,313.95
2018-12-02T22:24:28.360Z,312.96
2018-12-02T22:25:28.345Z,314.37
2018-12-02T22:26:28.331Z,314.08
2018-12-02T22:27:28.363Z,312.09
2018-12-02T22:28:28.320Z,314.70
2018-12-02T22:29:28.304Z,312.78
2018-12-02T22:30:28.289Z,314.07
2018-12-02T22:31:28.289Z,312.83
2018-12-02T22:32:28.323Z,313.91
2018-12-02T22:33:28.288Z,312.84
2018-12-02T22:34:28.254Z,315.37
2018-12-02T22:35:28.243Z,313.56
2018-12-02T22:36:28.222Z,313.26
2018-12-02T22:37:28.224Z,314.13
2018-12-02T22:38:28.220Z,313.54
2018-12-02T22:39:28.227Z,315.46
2018-12-02T22:40:28.192Z,317.84
2018-12-02T22:41:28.177Z,317.18
2018-12-02T22:42:28.175Z,319.20
2018-12-02T22:43:28.146Z,317.97
2018-12-02T22:44:31.442Z,318.00
2018-12-02T22:45:28.173Z,317.67
2018-12-02T22:46:28.120Z,317.98
2018-12-02T22:47:28.106Z,319.56
2018-12-02T22:48:28.089Z,317.26
2018-12-02T22:49:28.075Z,318.02
2018-12-02T22:50:28.066Z,317.13
2018-12-02T22:51:28.088Z,318.71
2018-12-02T22:52:28.055Z,312.59
2018-12-02T22:53:28.039Z,317.84
2018-12-02T22:54:28.034Z,313.96
2018-12-02T22:55:28.005Z,318.47
2018-12-02T22:56:28.025Z,312.95
2018-12-02T22:57:27.996Z,313.41
2018-12-02T22:58:27.981Z,317.30
2018-12-02T22:59:27.980Z,317.34
2018-12-02T23:00:27.973Z,313.45
2018-12-02T23:01:27.949Z,313.13
2018-12-02T23:02:27.963Z,313.79
2018-12-02T23:03:27.950Z,319.15
2018-12-02T23:04:27.934Z,313.50
2018-12-02T23:05:27.907Z,317.61
2018-12-02T23:06:27.901Z,313.87
2018-12-02T23:07:27.889Z,314.19
2018-12-02T23:08:27.898Z,317.89
2018-12-02T23:09:27.862Z,317.62
2018-12-02T23:10:27.853Z,319.98
2018-12-02T23:11:27.849Z,317.66
2018-12-02T23:12:27.833Z,318.10
2018-12-02T23:13:27.841Z,317.81
2018-12-02T23:14:27.810Z,312.98
2018-12-02T23:15:27.788Z,317.37
2018-12-02T23:16:27.784Z,313.78
2018-12-02T23:17:27.778Z,320.23
2018-12-02T23:18:27.806Z,316.91
2018-12-02T23:19:27.802Z,318.24
2018-12-02T23:20:27.736Z,313.45
2018-12-02T23:21:27.734Z,314.89
2018-12-02T23:22:27.723Z,319.69
2018-12-02T23:23:27.719Z,313.80
2018-12-02T23:24:27.888Z,315.12
2018-12-02T23:25:27.694Z,313.16
2018-12-02T23:26:27.695Z,313.29
2018-12-02T23:27:27.664Z,318.43
2018-12-02T23:28:27.652Z,314.16
2018-12-02T23:29:27.662Z,313.09
2018-12-02T23:30:28.042Z,313.30
2018-12-02T23:31:27.624Z,312.72
2018-12-02T23:32:27.618Z,319.94
2018-12-02T23:33:28.084Z,313.88
2018-12-02T23:34:27.584Z,315.76
2018-12-02T23:35:27.588Z,314.29
2018-12-02T23:36:27.592Z,313.90
2018-12-02T23:37:27.561Z,312.65
2018-12-02T23:38:27.570Z,319.38
2018-12-02T23:39:27.527Z,317.92
2018-12-02T23:40:27.518Z,318.60
2018-12-02T23:41:27.527Z,313.38
2018-12-02T23:42:27.486Z,319.56
2018-12-02T23:43:27.496Z,317.15
2018-12-02T23:44:27.482Z,317.30
2018-12-02T23:45:27.469Z,317.14
2018-12-02T23:46:27.486Z,312.41
2018-12-02T23:47:27.438Z,317.27
2018-12-02T23:48:27.430Z,313.10
2018-12-02T23:49:27.421Z,317.84
2018-12-02T23:50:27.414Z,313.89
2018-12-02T23:51:27.428Z,317.25
2018-12-02T23:52:27.388Z,312.21
2018-12-02T23:53:27.375Z,314.05
2018-12-02T23:54:27.367Z,312.80
2018-12-02T23:55:27.358Z,314.27
2018-12-02T23:56:27.358Z,313.77
2018-12-02T23:57:27.354Z,312.28
2018-12-02T23:58:27.340Z,312.55
2018-12-02T23:59:27.298Z,318.29
